Terminal Aerodrome Forecast
Issued by NWS

Home | Current Version | Previous Version | Text Only | Print | Product List | Glossary On
Versions: 1 2 3 4 5 6 7 8 9 10 11 12 13 14 15 16
000
FTUS43 KFGF 021100
TAFTVF
TAF
KTVF 021120Z 0212/0312 19007KT P6SM SKC
     FM021800 18016KT P6SM SCT250
     FM022200 18018KT P6SM BKN080
     FM030200 17015KT P6SM BKN080
      AMD LTD TO CLD VIS AND WIND=

USA.gov is the U.S. government's official web portal to all federal, state and local government web resources and services.